Time;durP1;ratioP1;P1;durP2;ratioP2;P2;SDS_P1;SDS_P2;PMS_P1;PMS_P2;Temp;Humidity;BMP_temperature;BMP_pressure;BME280_temperature;BME280_humidity;BME280_pressure;Samples;Min_cycle;Max_cycle;Signal;HPM_P1;HPM_P2
2021/01/22 00:01:59;;;;;;;15.23;8.30;;;;;;;5.96;70.33;98867.45;1678663;85;21188;-77
2021/01/22 00:04:27;;;;;;;14.67;7.10;;;;;;;5.99;70.30;98873.71;1678880;85;21272;-77
2021/01/22 00:06:55;;;;;;;17.55;8.33;;;;;;;6.02;70.27;98873.34;1678869;85;21165;-77
2021/01/22 00:09:22;;;;;;;17.92;7.87;;;;;;;6.07;70.25;98868.85;1686372;85;21159;-78
2021/01/22 00:11:50;;;;;;;18.60;7.58;;;;;;;6.12;70.18;98873.13;1688627;84;21148;-77
2021/01/22 00:14:17;;;;;;;16.32;8.03;;;;;;;6.17;70.14;98881.83;1694692;83;21536;-77
2021/01/22 00:16:45;;;;;;;14.87;7.80;;;;;;;6.21;70.08;98872.53;1697285;83;21780;-77
2021/01/22 00:19:12;;;;;;;17.10;8.25;;;;;;;6.23;70.05;98868.70;1695859;84;21172;-77
2021/01/22 00:21:39;;;;;;;16.82;7.70;;;;;;;6.23;70.01;98863.41;1671235;84;21208;-76
2021/01/22 00:24:07;;;;;;;13.90;6.90;;;;;;;6.23;69.99;98852.81;1680676;84;21176;-77
2021/01/22 00:26:34;;;;;;;20.55;10.08;;;;;;;6.24;69.95;98843.88;1699142;84;21203;-77
2021/01/22 00:29:02;;;;;;;16.32;9.70;;;;;;;6.25;69.90;98840.23;1699628;84;21211;-76
2021/01/22 00:31:29;;;;;;;19.40;10.43;;;;;;;6.27;69.88;98846.16;1699271;84;21619;-76
2021/01/22 00:33:56;;;;;;;19.80;9.75;;;;;;;6.27;69.85;98841.36;1699590;84;21224;-76
2021/01/22 00:36:23;;;;;;;16.12;8.10;;;;;;;6.27;69.81;98847.48;1699313;84;21620;-76
2021/01/22 00:38:51;;;;;;;14.87;7.65;;;;;;;6.25;69.77;98853.47;1699516;84;22030;-76
2021/01/22 00:41:19;;;;;;;16.52;8.55;;;;;;;6.24;69.71;98842.55;1690278;84;21710;-76
2021/01/22 00:43:46;;;;;;;14.87;7.53;;;;;;;6.23;69.67;98828.99;1674080;85;21699;-77
2021/01/22 00:46:13;;;;;;;15.48;8.30;;;;;;;6.23;69.62;98830.31;1666104;85;21171;-76
2021/01/22 00:48:40;;;;;;;16.62;8.23;;;;;;;6.23;69.58;98825.52;1680118;85;21180;-76
2021/01/22 00:51:08;;;;;;;17.77;9.18;;;;;;;6.22;69.52;98822.08;1678987;85;21908;-76
2021/01/22 00:53:35;;;;;;;16.15;7.10;;;;;;;6.23;69.45;98826.34;1669346;85;21611;-77
2021/01/22 00:56:02;;;;;;;17.23;7.83;;;;;;;6.25;69.39;98813.77;1668282;85;21232;-76
2021/01/22 00:58:30;;;;;;;16.87;7.85;;;;;;;6.25;69.33;98799.21;1668382;85;21167;-76
2021/01/22 01:00:57;;;;;;;14.73;7.87;;;;;;;6.25;69.25;98778.03;1665358;85;21652;-76
2021/01/22 01:03:25;;;;;;;15.93;7.45;;;;;;;6.26;69.21;98811.42;1637368;87;21215;-76
2021/01/22 01:05:52;;;;;;;14.40;6.90;;;;;;;6.27;69.20;98787.92;1663683;86;21198;-76
2021/01/22 01:08:19;;;;;;;13.13;6.70;;;;;;;6.29;69.16;98780.64;1640088;87;21232;-76
2021/01/22 01:10:47;;;;;;;15.00;7.40;;;;;;;6.32;69.10;98776.30;1665590;86;21166;-76
2021/01/22 01:13:15;;;;;;;14.98;6.92;;;;;;;6.33;69.07;98773.16;1644378;86;21236;-76
2021/01/22 01:15:44;;;;;;;18.32;7.20;;;;;;;6.37;69.03;98771.77;1665885;86;21248;-76
2021/01/22 01:18:11;;;;;;;14.10;7.00;;;;;;;6.37;68.94;98767.30;1644662;87;21211;-76
2021/01/22 01:20:39;;;;;;;16.07;7.55;;;;;;;6.37;68.89;98760.67;1666065;86;21635;-76
2021/01/22 01:23:12;;;;;;;20.35;8.70;;;;;;;6.34;68.84;98764.19;1644198;87;21259;-76
2021/01/22 01:25:35;;;;;;;21.25;8.38;;;;;;;6.32;68.81;98764.39;1694777;83;22227;-76
2021/01/22 01:28:03;;;;;;;13.10;7.00;;;;;;;6.28;68.75;98752.52;1694673;84;21609;-76
2021/01/22 01:30:30;;;;;;;18.57;8.68;;;;;;;6.26;68.73;98749.22;1694949;84;21248;-76
2021/01/22 01:32:57;;;;;;;20.68;9.45;;;;;;;6.22;68.69;98742.67;1693700;84;21200;-76
2021/01/22 01:35:25;;;;;;;28.57;9.43;;;;;;;6.18;68.65;98740.56;1693490;84;21191;-76
2021/01/22 01:37:52;;;;;;;21.45;9.78;;;;;;;6.15;68.63;98749.70;1664072;86;21148;-76
2021/01/22 01:40:19;;;;;;;22.82;9.85;;;;;;;6.14;68.62;98741.43;1663757;86;22005;-76
2021/01/22 01:42:48;;;;;;;18.65;9.23;;;;;;;6.10;68.59;98748.08;1668898;85;21711;-76
2021/01/22 01:45:19;;;;;;;24.72;10.28;;;;;;;6.07;68.56;98735.72;1682746;85;21148;-76
2021/01/22 01:47:46;;;;;;;17.85;8.90;;;;;;;6.02;68.55;98728.31;1683199;85;21271;-76
2021/01/22 01:50:14;;;;;;;20.60;9.53;;;;;;;5.98;68.55;98724.42;1682141;85;21236;-76
2021/01/22 01:52:41;;;;;;;26.52;10.68;;;;;;;5.96;68.57;98725.08;1668394;85;21939;-76
2021/01/22 01:55:09;;;;;;;20.45;9.58;;;;;;;5.91;68.57;98721.65;1683173;85;21183;-76
2021/01/22 01:57:36;;;;;;;20.25;10.18;;;;;;;5.89;68.58;98725.48;1682726;85;21224;-76
2021/01/22 02:00:05;;;;;;;20.48;9.80;;;;;;;5.87;68.60;98711.63;1683319;85;21184;-76
2021/01/22 02:02:33;;;;;;;23.62;10.88;;;;;;;5.84;68.60;98717.26;1682325;85;21659;-76
2021/01/22 02:05:00;;;;;;;32.65;12.35;;;;;;;5.82;68.60;98711.31;1682987;85;22498;-76
2021/01/22 02:07:27;;;;;;;21.87;10.75;;;;;;;5.81;68.62;98707.02;1683118;84;21633;-76
2021/01/22 02:09:55;;;;;;;23.98;10.63;;;;;;;5.77;68.63;98702.59;1695137;84;21206;-76
2021/01/22 02:12:22;;;;;;;22.05;10.25;;;;;;;5.76;68.67;98699.64;1670057;85;21243;-76
2021/01/22 02:14:49;;;;;;;20.75;10.23;;;;;;;5.77;68.69;98704.44;1697037;83;21175;-76
2021/01/22 02:17:16;;;;;;;19.60;9.55;;;;;;;5.74;68.70;98711.38;1697530;83;21180;-76
2021/01/22 02:20:20;;;;;;;21.23;9.85;;;;;;;5.76;68.72;98715.52;1697081;84;21746;-76
2021/01/22 02:22:47;;;;;;;16.48;9.08;;;;;;;5.80;68.73;98721.27;1697370;84;21206;-76
2021/01/22 02:25:14;;;;;;;19.65;9.35;;;;;;;5.84;68.73;98718.05;1697539;83;21608;-76
2021/01/22 02:27:42;;;;;;;16.87;8.13;;;;;;;5.84;68.75;98696.89;1685157;84;21148;-76
2021/01/22 02:30:10;;;;;;;14.47;7.80;;;;;;;5.85;68.74;98689.28;1697525;84;21192;-76
2021/01/22 02:32:37;;;;;;;17.48;7.70;;;;;;;5.89;68.73;98679.20;1697324;83;21182;-76
2021/01/22 02:35:08;;;;;;;20.65;9.00;;;;;;;5.94;68.68;98692.70;1697713;83;21164;-76
2021/01/22 02:37:36;;;;;;;19.45;10.90;;;;;;;5.93;68.66;98689.73;1683810;83;21148;-76
2021/01/22 02:40:08;;;;;;;19.30;9.45;;;;;;;5.89;68.67;98683.16;1683202;85;21259;-76
2021/01/22 02:42:37;;;;;;;17.73;8.13;;;;;;;5.86;68.63;98673.77;1683196;85;21168;-77
2021/01/22 02:45:10;;;;;;;15.08;7.60;;;;;;;5.86;68.62;98662.37;1682700;85;21629;-76
2021/01/22 02:47:37;;;;;;;19.85;9.45;;;;;;;5.87;68.60;98658.73;1683075;85;21196;-76
2021/01/22 02:50:06;;;;;;;18.98;9.33;;;;;;;5.86;68.57;98663.69;1683034;85;21195;-77
2021/01/22 02:52:38;;;;;;;17.17;8.13;;;;;;;5.86;68.56;98668.98;1683320;85;21176;-76
2021/01/22 02:55:07;;;;;;;16.02;7.58;;;;;;;5.85;68.51;98654.08;1682702;85;21573;-76
2021/01/22 02:57:43;;;;;;;15.60;7.28;;;;;;;5.82;68.46;98646.02;1662058;85;25921;-76
2021/01/22 03:00:26;;;;;;;17.10;8.15;;;;;;;5.88;68.41;98645.80;1815382;77;22708;-76
2021/01/22 03:03:10;;;;;;;15.43;8.73;;;;;;;5.82;68.37;98645.19;1787264;80;21666;-76
2021/01/22 03:05:36;;;;;;;21.52;9.40;;;;;;;5.78;68.34;98649.19;1786943;80;22074;-76
2021/01/22 03:08:11;;;;;;;19.87;9.65;;;;;;;5.74;68.32;98632.87;1786431;80;21778;-76
2021/01/22 03:10:39;;;;;;;20.12;10.38;;;;;;;5.70;68.29;98637.41;1779589;80;21172;-75
2021/01/22 03:13:05;;;;;;;24.32;9.95;;;;;;;5.64;68.29;98640.75;1754047;81;21543;-75
2021/01/22 03:15:34;;;;;;;16.57;8.83;;;;;;;5.58;68.28;98640.16;1754420;81;21184;-76
2021/01/22 03:18:16;;;;;;;22.70;9.18;;;;;;;5.52;68.28;98631.94;1753829;81;21201;-75
2021/01/22 03:20:43;;;;;;;18.57;9.15;;;;;;;5.47;68.29;98634.33;1754371;81;21227;-75
2021/01/22 03:23:10;;;;;;;14.95;7.83;;;;;;;5.43;68.31;98633.53;1754304;81;21124;-75
2021/01/22 03:25:36;;;;;;;18.10;9.28;;;;;;;5.41;68.32;98621.84;1754067;81;21211;-76
2021/01/22 03:28:07;;;;;;;19.50;9.20;;;;;;;5.39;68.35;98618.53;1754416;81;21211;-76
2021/01/22 03:30:33;;;;;;;17.75;8.75;;;;;;;5.39;68.35;98629.11;1754291;81;21272;-76
2021/01/22 03:33:00;;;;;;;17.17;7.80;;;;;;;5.37;68.36;98630.30;1754195;81;21180;-75
2021/01/22 03:35:27;;;;;;;16.70;7.30;;;;;;;5.34;68.39;98626.20;1754441;81;21168;-76
2021/01/22 03:37:56;;;;;;;15.53;7.45;;;;;;;5.36;68.41;98609.65;1755912;81;21151;-76
2021/01/22 03:40:23;;;;;;;12.60;5.65;;;;;;;5.35;68.44;98600.56;1756122;81;21125;-76
2021/01/22 03:42:50;;;;;;;18.87;8.98;;;;;;;5.37;68.45;98613.95;1755831;81;21292;-76
2021/01/22 03:45:16;;;;;;;19.17;8.50;;;;;;;5.37;68.49;98611.30;1755443;81;21553;-75
2021/01/22 03:47:43;;;;;;;18.65;9.05;;;;;;;5.39;68.50;98610.61;1755942;81;21659;-75
2021/01/22 03:50:09;;;;;;;25.68;10.40;;;;;;;5.38;68.54;98608.95;1755945;81;21183;-75
2021/01/22 03:52:36;;;;;;;27.37;8.90;;;;;;;5.37;68.56;98607.34;1755835;81;21442;-75
2021/01/22 03:55:05;;;;;;;20.10;8.13;;;;;;;5.39;68.60;98623.82;1755961;81;21868;-75
2021/01/22 03:57:32;;;;;;;14.15;6.47;;;;;;;5.41;68.62;98611.27;1755697;81;21151;-75
2021/01/22 03:59:58;;;;;;;18.23;7.30;;;;;;;5.43;68.65;98616.35;1745198;81;22366;-75
2021/01/22 04:02:24;;;;;;;16.82;7.17;;;;;;;5.47;68.67;98613.17;1751438;81;21597;-75
2021/01/22 04:04:52;;;;;;;13.28;6.58;;;;;;;5.51;68.67;98603.06;1754629;81;21254;-75
2021/01/22 04:07:18;;;;;;;13.30;6.83;;;;;;;5.52;68.69;98589.64;1756105;81;21131;-75
2021/01/22 04:09:44;;;;;;;18.07;6.83;;;;;;;5.57;68.68;98601.50;1755827;81;21163;-75
2021/01/22 04:12:11;;;;;;;13.72;6.42;;;;;;;5.58;68.71;98593.89;1755420;81;21208;-75
2021/01/22 04:14:37;;;;;;;11.10;6.22;;;;;;;5.62;68.72;98592.53;1754620;81;21210;-76
2021/01/22 04:17:04;;;;;;;13.93;6.78;;;;;;;5.64;68.73;98583.90;1755465;81;21131;-75
2021/01/22 04:19:30;;;;;;;23.77;12.18;;;;;;;5.64;68.74;98577.29;1755478;81;21237;-75
2021/01/22 04:21:57;;;;;;;15.13;6.22;;;;;;;5.65;68.78;98574.97;1756007;81;21126;-75
2021/01/22 04:24:24;;;;;;;15.58;5.95;;;;;;;5.67;68.76;98573.78;1755430;81;21167;-75
2021/01/22 04:26:51;;;;;;;19.23;7.00;;;;;;;5.69;68.77;98564.35;1755287;81;21575;-75
2021/01/22 04:29:19;;;;;;;13.75;6.47;;;;;;;5.72;68.78;98552.08;1755356;81;21159;-75
2021/01/22 04:31:47;;;;;;;13.72;6.03;;;;;;;5.75;68.78;98526.58;1755404;81;21262;-75
2021/01/22 04:34:13;;;;;;;12.10;6.30;;;;;;;5.78;68.78;98524.89;1755259;81;21997;-75
2021/01/22 04:36:40;;;;;;;23.70;11.95;;;;;;;5.78;68.77;98511.16;1755281;81;21200;-75
2021/01/22 04:39:06;;;;;;;18.15;8.23;;;;;;;5.77;68.78;98500.27;1755485;81;21186;-76
2021/01/22 04:41:32;;;;;;;16.37;6.90;;;;;;;5.72;68.79;98496.55;1755418;81;21141;-76
2021/01/22 04:44:00;;;;;;;15.18;7.25;;;;;;;5.69;68.78;98495.60;1750985;81;21175;-76
2021/01/22 04:46:28;;;;;;;14.83;7.03;;;;;;;5.67;68.77;98505.52;1741740;81;21158;-76
2021/01/22 04:48:54;;;;;;;17.23;7.15;;;;;;;5.63;68.77;98495.03;1705509;83;21207;-76
2021/01/22 04:51:20;;;;;;;14.05;6.40;;;;;;;5.62;68.80;98510.56;1715769;83;21610;-76
2021/01/22 04:53:48;;;;;;;14.78;6.30;;;;;;;5.60;68.81;98494.88;1715598;83;21146;-75
2021/01/22 04:56:14;;;;;;;18.17;6.53;;;;;;;5.60;68.81;98476.36;1715689;83;21214;-76
2021/01/22 04:58:41;;;;;;;14.70;6.70;;;;;;;5.64;68.77;98470.20;1715792;82;21193;-76
2021/01/22 05:01:08;;;;;;;15.50;7.12;;;;;;;5.70;68.76;98466.84;1740677;81;21195;-75
2021/01/22 05:03:34;;;;;;;13.90;6.65;;;;;;;5.73;68.72;98453.23;1760370;81;21116;-76
2021/01/22 05:06:01;;;;;;;17.87;7.65;;;;;;;5.73;68.70;98479.69;1760308;81;21159;-76
2021/01/22 05:08:27;;;;;;;18.85;9.50;;;;;;;5.70;68.69;98458.91;1760478;81;22270;-76
2021/01/22 05:10:53;;;;;;;16.07;8.20;;;;;;;5.69;68.70;98466.02;1760274;81;21187;-76
2021/01/22 05:13:20;;;;;;;19.25;7.60;;;;;;;5.71;68.71;98461.34;1760275;81;21211;-76
2021/01/22 05:16:12;;;;;;;13.62;7.83;;;;;;;5.74;68.72;98457.50;1760016;81;21637;-76
2021/01/22 05:18:39;;;;;;;14.98;6.95;;;;;;;5.78;68.72;98456.13;1760294;81;21124;-76
2021/01/22 05:21:13;;;;;;;15.20;7.05;;;;;;;5.77;68.72;98457.16;1735057;81;21200;-76
2021/01/22 05:23:41;;;;;;;14.15;6.78;;;;;;;5.74;68.72;98457.50;1760395;81;21136;-77
2021/01/22 05:26:10;;;;;;;13.55;7.55;;;;;;;5.71;68.77;98461.84;1760490;81;21140;-76
2021/01/22 05:28:46;;;;;;;16.67;7.83;;;;;;;5.75;68.94;98448.56;1760738;81;21160;-76
2021/01/22 05:31:17;;;;;;;19.23;6.87;;;;;;;5.75;68.94;98448.56;1759428;81;21195;-76
2021/01/22 05:33:58;;;;;;;17.25;6.87;;;;;;;5.80;68.87;98464.70;1760429;81;21152;-76
2021/01/22 05:36:27;;;;;;;16.52;8.73;;;;;;;5.86;68.89;98466.63;1752358;81;21118;-76
2021/01/22 05:38:56;;;;;;;19.07;8.45;;;;;;;5.88;68.90;98465.92;1744380;81;21631;-76
2021/01/22 05:41:22;;;;;;;18.20;8.33;;;;;;;5.90;68.89;98452.03;1743850;82;21182;-76
2021/01/22 05:43:52;;;;;;;20.77;9.35;;;;;;;5.89;68.92;98466.25;1744471;82;21570;-76
2021/01/22 05:46:22;;;;;;;26.10;9.97;;;;;;;5.88;68.93;98469.89;1744354;82;21199;-76
2021/01/22 05:48:49;;;;;;;20.65;8.28;;;;;;;5.86;68.92;98457.37;1743685;81;21574;-76
2021/01/22 05:51:15;;;;;;;27.07;9.20;;;;;;;5.87;68.94;98449.27;1718788;82;21226;-77
2021/01/22 05:53:46;;;;;;;16.27;7.17;;;;;;;5.86;68.95;98454.72;1743921;82;21681;-77
2021/01/22 05:56:18;;;;;;;19.80;7.60;;;;;;;5.87;68.95;98459.02;1744055;82;21166;-77
2021/01/22 05:58:46;;;;;;;16.95;8.80;;;;;;;5.86;68.96;98455.55;1744010;81;21186;-75
2021/01/22 06:01:23;;;;;;;20.72;8.30;;;;;;;5.87;69.02;98457.70;1732332;80;21242;-74
2021/01/22 06:03:51;;;;;;;21.80;7.40;;;;;;;5.84;69.04;98440.85;1716969;82;21591;-75
2021/01/22 06:06:18;;;;;;;12.75;5.42;;;;;;;5.85;69.06;98437.17;1731503;82;21150;-77
2021/01/22 06:08:57;;;;;;;16.02;5.65;;;;;;;5.82;69.09;98439.70;1731499;82;21571;-74
2021/01/22 06:11:29;;;;;;;11.10;6.60;;;;;;;5.84;69.16;98439.53;1731697;82;21213;-74
2021/01/22 06:14:01;;;;;;;12.43;6.10;;;;;;;5.88;69.19;98432.86;1731638;82;21166;-77
2021/01/22 06:16:28;;;;;;;19.48;7.00;;;;;;;5.89;69.25;98434.50;1731599;81;21614;-74
2021/01/22 06:19:06;;;;;;;21.50;6.47;;;;;;;5.89;69.30;98436.66;1731445;82;21586;-75
2021/01/22 06:21:40;;;;;;;15.25;6.70;;;;;;;5.89;69.35;98443.77;1731716;82;21122;-76
2021/01/22 06:24:07;;;;;;;15.05;7.33;;;;;;;5.89;69.38;98446.41;1731641;82;21201;-75
2021/01/22 06:26:39;;;;;;;13.85;6.25;;;;;;;5.90;69.43;98440.13;1731593;82;21181;-75
2021/01/22 06:29:09;;;;;;;15.28;6.42;;;;;;;5.88;69.47;98449.55;1731597;81;21154;-75
2021/01/22 06:31:37;;;;;;;10.20;5.85;;;;;;;5.87;69.50;98445.80;1731679;82;21666;-76
2021/01/22 06:34:04;;;;;;;21.45;10.98;;;;;;;5.86;69.55;98446.29;1731098;82;21181;-76
2021/01/22 06:36:31;;;;;;;28.62;14.98;;;;;;;5.86;69.59;98448.11;1715825;82;21726;-76
2021/01/22 06:38:58;;;;;;;20.02;9.15;;;;;;;5.85;69.62;98428.74;1731358;82;21158;-76
2021/01/22 06:41:26;;;;;;;14.70;6.17;;;;;;;5.83;69.66;98440.52;1731300;81;21151;-76
2021/01/22 06:43:54;;;;;;;15.75;6.10;;;;;;;5.83;69.71;98420.69;1731212;81;21583;-75
2021/01/22 06:46:21;;;;;;;21.27;7.47;;;;;;;5.86;69.75;98416.37;1731283;82;21801;-75
2021/01/22 06:48:55;;;;;;;19.12;8.70;;;;;;;5.88;69.81;98418.31;1690310;82;22143;-75
2021/01/22 06:51:22;;;;;;;26.35;9.00;;;;;;;5.87;69.86;98424.63;1731207;82;21175;-76
2021/01/22 06:57:07;;;;;;;19.10;7.08;;;;;;;5.88;70.00;98435.50;1852088;77;22464;-76
2021/01/22 06:59:39;;;;;;;13.72;5.65;;;;;;;5.79;70.03;98436.61;1788085;80;21124;-76
2021/01/22 07:02:34;;;;;;;24.70;10.80;;;;;;;5.80;70.09;98435.61;1772366;80;21577;-76
2021/01/22 07:05:01;;;;;;;37.88;13.83;;;;;;;5.79;70.13;98439.26;1726631;83;21138;-75
2021/01/22 07:07:47;;;;;;;24.12;9.28;;;;;;;5.76;70.19;98440.46;1750106;81;21122;-77
2021/01/22 07:10:13;;;;;;;13.70;5.97;;;;;;;5.72;70.24;98437.87;1739873;81;21102;-76
2021/01/22 07:15:26;;;;;;;15.03;6.83;;;;;;;5.75;70.35;98427.41;1810722;78;22643;-77
2021/01/22 07:17:59;;;;;;;12.35;5.78;;;;;;;5.70;70.39;98435.11;1796771;79;21175;-77
2021/01/22 07:20:28;;;;;;;15.30;6.33;;;;;;;5.70;70.45;98435.11;1796431;79;21234;-77
2021/01/22 07:22:57;;;;;;;16.90;5.80;;;;;;;5.71;70.51;98426.14;1796582;79;21223;-77
2021/01/22 07:25:44;;;;;;;16.07;6.47;;;;;;;5.71;70.59;98431.43;1796374;79;21150;-76
2021/01/22 07:28:20;;;;;;;15.60;6.05;;;;;;;5.71;70.63;98430.11;1796652;79;21604;-76
2021/01/22 07:30:47;;;;;;;35.45;13.65;;;;;;;5.69;70.70;98425.52;1796739;79;21358;-76
2021/01/22 07:33:36;;;;;;;52.60;13.80;;;;;;;5.69;70.74;98430.81;1796518;79;21187;-77
2021/01/22 07:36:16;;;;;;;34.13;10.53;;;;;;;5.70;70.79;98424.53;1789701;79;21250;-76
2021/01/22 07:38:42;;;;;;;24.12;8.43;;;;;;;5.68;70.83;98427.34;1757150;81;21389;-77
2021/01/22 07:41:09;;;;;;;15.85;6.05;;;;;;;5.66;70.85;98423.26;1756926;80;21137;-76
2021/01/22 07:43:36;;;;;;;17.15;7.00;;;;;;;5.63;70.92;98419.67;1762340;80;21669;-76
2021/01/22 07:46:10;;;;;;;22.13;9.83;;;;;;;5.61;70.96;98423.81;1756826;81;21175;-76
2021/01/22 07:48:39;;;;;;;18.87;7.10;;;;;;;5.61;71.01;98430.92;1758888;80;21160;-76
2021/01/22 07:51:36;;;;;;;20.50;8.60;;;;;;;5.61;71.09;98421.66;1777430;80;21624;-76
2021/01/22 07:54:03;;;;;;;19.80;6.83;;;;;;;5.60;71.15;98451.25;1765414;81;21199;-76
2021/01/22 07:56:39;;;;;;;15.00;6.85;;;;;;;5.60;71.25;98435.88;1757739;81;21137;-76
2021/01/22 07:59:07;;;;;;;15.23;6.75;;;;;;;5.64;71.32;98447.23;1732954;81;21211;-76
2021/01/22 08:01:34;;;;;;;26.15;10.88;;;;;;;5.68;71.35;98443.71;1755047;81;21366;-76
2021/01/22 08:04:01;;;;;;;28.20;9.95;;;;;;;5.69;71.37;98442.72;1755527;80;21552;-76
2021/01/22 08:06:27;;;;;;;49.83;16.97;;;;;;;5.69;71.43;98437.42;1765079;80;21688;-76
2021/01/22 08:09:09;;;;;;;45.28;16.17;;;;;;;5.72;71.46;98433.91;1772981;80;21160;-76
2021/01/22 08:11:35;;;;;;;24.57;11.50;;;;;;;5.77;71.51;98429.38;1758252;80;21295;-76
2021/01/22 08:14:01;;;;;;;37.38;15.88;;;;;;;5.86;71.52;98421.66;1753077;80;21229;-76
2021/01/22 08:16:28;;;;;;;17.62;8.15;;;;;;;5.95;71.53;98427.95;1751519;81;21189;-76
2021/01/22 08:18:54;;;;;;;19.50;8.10;;;;;;;6.08;71.52;98428.60;1751050;80;21137;-76
2021/01/22 08:21:21;;;;;;;102.07;48.65;;;;;;;6.19;71.51;98430.74;1750747;82;21712;-76
2021/01/22 08:23:48;;;;;;;26.30;11.68;;;;;;;6.28;71.49;98428.27;1750943;82;21202;-76
2021/01/22 08:26:16;;;;;;;52.30;27.62;;;;;;;6.38;71.49;98437.20;1750258;82;21211;-76
2021/01/22 08:28:42;;;;;;;33.20;15.08;;;;;;;6.44;71.49;98429.30;1749656;82;21172;-76
2021/01/22 08:31:10;;;;;;;23.12;11.22;;;;;;;6.51;71.50;98431.99;1749509;82;21152;-76
2021/01/22 08:33:39;;;;;;;18.57;7.40;;;;;;;6.59;71.50;98429.71;1730369;82;21550;-77
2021/01/22 08:36:06;;;;;;;14.80;7.22;;;;;;;6.70;71.47;98431.83;1754477;81;21203;-76
2021/01/22 08:38:34;;;;;;;10.88;4.92;;;;;;;6.81;71.48;98440.58;1764305;81;21163;-76
2021/01/22 08:41:00;;;;;;;16.07;7.47;;;;;;;6.91;71.37;98433.09;1762053;81;21180;-77
2021/01/22 08:43:26;;;;;;;14.40;6.10;;;;;;;7.00;71.29;98427.97;1763491;81;21163;-76
2021/01/22 08:46:05;;;;;;;12.80;6.47;;;;;;;7.06;71.24;98432.48;1722456;82;21217;-76
2021/01/22 08:48:32;;;;;;;13.62;6.47;;;;;;;7.15;71.15;98442.39;1742809;81;21440;-76
2021/01/22 08:51:00;;;;;;;12.15;5.10;;;;;;;7.21;71.06;98443.78;1751764;81;21194;-76
2021/01/22 08:53:26;;;;;;;10.88;5.10;;;;;;;7.27;70.96;98438.19;1755408;81;21179;-76
2021/01/22 08:56:13;;;;;;;19.73;9.15;;;;;;;7.34;70.88;98435.06;1745240;81;21149;-76
2021/01/22 08:59:14;;;;;;;7.95;4.40;;;;;;;7.41;70.81;98437.23;1758269;80;21567;-76
2021/01/22 09:01:59;;;;;;;11.48;5.05;;;;;;;7.53;70.66;98435.62;1740739;81;22220;-76
2021/01/22 09:04:34;;;;;;;13.72;6.12;;;;;;;7.62;70.54;98432.31;1754773;80;21181;-75
2021/01/22 09:07:10;;;;;;;11.65;6.33;;;;;;;7.73;70.44;98445.00;1758604;80;21176;-75
2021/01/22 09:09:49;;;;;;;11.97;5.83;;;;;;;7.80;70.29;98453.30;1738330;81;21144;-75
2021/01/22 09:12:28;;;;;;;12.65;4.75;;;;;;;7.88;70.20;98443.01;1729580;82;21227;-75
2021/01/22 09:15:01;;;;;;;;;;;;;;;7.97;70.08;98450.58;1736479;81;21203;-76
2021/01/22 09:17:45;;;;;;;13.65;5.10;;;;;;;8.10;69.92;98450.28;1749240;80;20295;-76
2021/01/22 09:20:23;;;;;;;13.62;5.60;;;;;;;8.20;69.80;98446.20;1751466;80;21171;-76
2021/01/22 09:22:51;;;;;;;10.40;4.83;;;;;;;8.32;69.64;98444.63;1752887;80;21593;-76
2021/01/22 09:25:19;;;;;;;10.45;5.08;;;;;;;8.41;69.50;98446.05;1757164;80;21164;-76
2021/01/22 09:27:47;;;;;;;10.08;4.80;;;;;;;8.49;69.36;98448.52;1771481;80;21268;-76
2021/01/22 09:30:15;;;;;;;12.53;4.67;;;;;;;8.55;69.20;98447.41;1782295;80;21152;-76
2021/01/22 09:32:47;;;;;;;6.50;3.65;;;;;;;8.63;69.03;98444.52;1782995;79;21203;-76
2021/01/22 09:35:14;;;;;;;8.55;4.25;;;;;;;8.75;68.84;98441.56;1784686;80;21151;-77
2021/01/22 09:37:40;;;;;;;7.33;3.77;;;;;;;8.85;68.58;98448.09;1732175;81;21128;-76
2021/01/22 09:40:07;;;;;;;16.60;7.55;;;;;;;8.98;68.35;98449.89;1776240;80;21263;-75
2021/01/22 09:42:35;;;;;;;15.08;8.30;;;;;;;9.09;68.16;98447.94;1776072;80;21632;-77
2021/01/22 09:45:02;;;;;;;12.10;6.28;;;;;;;9.17;67.94;98446.39;1782368;80;21160;-77
2021/01/22 09:47:29;;;;;;;7.22;4.28;;;;;;;9.29;67.79;98439.92;1769343;80;21151;-75
2021/01/22 09:49:55;;;;;;;7.90;4.47;;;;;;;9.36;67.62;98444.16;1768685;79;21162;-76
2021/01/22 09:52:22;;;;;;;16.85;5.10;;;;;;;9.43;67.36;98432.17;1771396;79;21143;-76
2021/01/22 09:54:48;;;;;;;11.53;5.78;;;;;;;9.50;67.16;98430.30;1780923;79;21191;-76
2021/01/22 09:57:15;;;;;;;15.43;7.78;;;;;;;9.57;67.03;98431.63;1768622;80;21172;-75
2021/01/22 09:59:42;;;;;;;10.03;4.80;;;;;;;9.62;66.83;98418.48;1772610;80;21572;-76
2021/01/22 10:02:10;;;;;;;8.53;3.85;;;;;;;9.67;66.60;98426.66;1781427;80;21121;-76
2021/01/22 10:04:37;;;;;;;11.38;4.65;;;;;;;9.72;66.46;98417.51;1786041;80;22149;-75
2021/01/22 10:07:04;;;;;;;13.25;5.65;;;;;;;9.80;66.21;98423.92;1784455;80;21223;-76
2021/01/22 10:09:33;;;;;;;11.12;4.72;;;;;;;9.86;66.05;98415.89;1786621;80;21558;-75
2021/01/22 10:11:59;;;;;;;12.78;5.33;;;;;;;9.92;65.84;98414.24;1786778;80;21199;-75
2021/01/22 10:14:26;;;;;;;14.85;5.70;;;;;;;9.98;65.67;98410.72;1786581;80;21259;-75
2021/01/22 10:16:52;;;;;;;13.10;5.53;;;;;;;10.03;65.49;98413.53;1765320;80;21347;-75
2021/01/22 10:19:19;;;;;;;13.28;5.15;;;;;;;10.05;65.26;98408.83;1787102;78;21108;-75
2021/01/22 10:21:45;;;;;;;12.40;5.28;;;;;;;10.06;65.08;98409.13;1775265;78;21211;-76
2021/01/22 10:24:11;;;;;;;16.35;5.45;;;;;;;10.06;64.89;98410.47;1784768;80;21187;-75
2021/01/22 10:26:38;;;;;;;9.73;4.65;;;;;;;10.10;64.76;98410.31;1782580;80;21152;-74
2021/01/22 10:29:04;;;;;;;10.70;4.92;;;;;;;10.12;64.67;98402.94;1754230;81;21188;-74
2021/01/22 10:31:30;;;;;;;14.63;6.78;;;;;;;10.16;64.33;98404.69;1754540;80;21196;-74
2021/01/22 10:33:57;;;;;;;13.22;6.42;;;;;;;10.19;64.19;98409.06;1761542;80;21659;-74
2021/01/22 10:36:23;;;;;;;13.25;6.28;;;;;;;10.23;64.19;98412.11;1768147;80;21170;-74
2021/01/22 10:38:49;;;;;;;10.85;5.17;;;;;;;10.27;64.06;98408.81;1784957;80;21580;-74
2021/01/22 10:41:16;;;;;;;15.03;7.58;;;;;;;10.32;63.87;98410.29;1766268;79;21200;-75
2021/01/22 10:43:42;;;;;;;12.70;5.22;;;;;;;10.37;63.69;98409.13;1775716;80;21756;-75
2021/01/22 10:46:08;;;;;;;17.07;5.30;;;;;;;10.41;63.42;98410.30;1772141;80;21136;-75
2021/01/22 10:48:34;;;;;;;11.45;4.90;;;;;;;10.45;63.17;98405.36;1771785;80;21133;-74
2021/01/22 10:51:02;;;;;;;14.78;7.53;;;;;;;10.49;63.09;98396.72;1776220;80;21750;-74
2021/01/22 10:53:29;;;;;;;10.28;6.10;;;;;;;10.55;62.97;98402.22;1759248;80;21201;-74
2021/01/22 10:55:55;;;;;;;28.70;12.88;;;;;;;10.55;62.73;98392.37;1770506;80;21730;-75
2021/01/22 10:58:21;;;;;;;17.67;7.25;;;;;;;10.60;62.76;98396.52;1768014;80;21181;-74
2021/01/22 11:00:48;;;;;;;16.82;8.28;;;;;;;10.68;62.70;98402.09;1764197;80;21124;-75
2021/01/22 11:03:14;;;;;;;18.70;9.90;;;;;;;10.74;62.55;98403.88;1764960;80;21188;-74
2021/01/22 11:05:41;;;;;;;18.25;9.18;;;;;;;10.79;62.50;98397.38;1764036;80;22189;-74
2021/01/22 11:08:07;;;;;;;34.70;15.25;;;;;;;10.83;62.42;98405.23;1769525;80;21193;-74
2021/01/22 11:10:33;;;;;;;19.25;8.13;;;;;;;10.85;62.44;98389.83;1769443;80;21182;-75
2021/01/22 11:13:00;;;;;;;41.20;13.70;;;;;;;10.87;62.41;98390.44;1769885;80;21591;-74
2021/01/22 11:15:27;;;;;;;21.10;8.05;;;;;;;10.86;62.40;98394.13;1775616;79;21154;-75
2021/01/22 11:17:53;;;;;;;16.85;7.22;;;;;;;10.85;62.39;98395.16;1756569;81;21275;-75
2021/01/22 11:20:21;;;;;;;18.67;8.05;;;;;;;10.85;62.36;98395.98;1743987;81;21169;-74
2021/01/22 11:22:48;;;;;;;10.65;5.75;;;;;;;10.87;62.40;98390.44;1760919;81;21156;-73
2021/01/22 11:25:15;;;;;;;14.20;6.25;;;;;;;10.89;62.39;98391.02;1756756;81;21172;-74
2021/01/22 11:27:41;;;;;;;11.18;5.20;;;;;;;10.93;62.43;98389.54;1735264;81;21640;-74
2021/01/22 11:30:11;;;;;;;17.75;5.97;;;;;;;10.96;62.35;98383.76;1740462;81;21272;-74
2021/01/22 11:32:38;;;;;;;12.35;4.58;;;;;;;10.97;62.34;98380.06;1732202;82;21609;-77
2021/01/22 11:35:09;;;;;;;12.20;4.75;;;;;;;11.01;62.30;98378.59;1746395;81;21400;-79
2021/01/22 11:37:37;;;;;;;16.00;6.92;;;;;;;11.02;62.20;98378.34;1702736;84;21127;-78
2021/01/22 11:40:05;;;;;;;13.95;7.10;;;;;;;11.02;62.18;98377.53;1753038;81;21633;-77
2021/01/22 11:42:31;;;;;;;13.95;5.97;;;;;;;11.00;62.18;98368.95;1738501;81;21944;-77
2021/01/22 11:44:58;;;;;;;20.20;6.90;;;;;;;11.00;62.22;98363.62;1732103;82;21147;-77
2021/01/22 11:47:24;;;;;;;15.83;6.35;;;;;;;11.01;62.28;98369.25;1732498;82;21155;-77